Vaughn, New Mexico
Current Conditions -  °F | °C
As of 3:53 PM on Wednesday 22 Oct 2014 (Local Time) from KCQC Reporting Station
Broken Clouds Broken Clouds  
Wind Chill: 67°   Ceiling: 7000
Heat Index: 67°   Visibility: 10mi
Dew Point: 36°   Wind: 16mph
Humidity: 32%   Direction: 290°WNW
Pressure: 30.19"   Gusts: 24mph
Location:  34.6°N, 105.21°W
Report Text: KCQC 222153Z AUTO 29014G21KT 10SM BKN070 19/02 A3019 RMK AO2 SLP150 T01940022
Loading
Personal Weather Stations






























Interactive Weather Map
Tropical Storm Tracking
New forecast layout! Learn more

10-Day Weather Forecast

Advertisements
Track Severe Weather on mobile